createdAt,value
2017-09-17T00:02:17.280Z,76.80
2017-09-17T00:04:45.447Z,76.50
2017-09-17T00:07:13.749Z,76.10
2017-09-17T00:09:41.998Z,75.90
2017-09-17T00:12:10.129Z,75.70
2017-09-17T00:14:38.301Z,75.70
2017-09-17T00:17:06.449Z,75.70
2017-09-17T00:19:34.725Z,75.40
2017-09-17T00:22:02.889Z,75.60
2017-09-17T00:24:31.053Z,75.50
2017-09-17T00:26:59.200Z,75.40
2017-09-17T00:29:28.151Z,75.10
2017-09-17T00:31:56.278Z,75.10
2017-09-17T00:34:24.427Z,75.00
2017-09-17T00:36:53.470Z,74.80
2017-09-17T00:39:21.604Z,74.80
2017-09-17T00:41:49.828Z,74.80
2017-09-17T00:44:17.982Z,74.70
2017-09-17T00:46:46.121Z,75.10
2017-09-17T00:49:15.050Z,75.40
2017-09-17T00:51:43.205Z,75.40
2017-09-17T00:54:11.497Z,75.70
2017-09-17T00:56:39.649Z,75.90
2017-09-17T00:59:07.793Z,76.20
2017-09-17T01:01:35.977Z,76.20
2017-09-17T01:04:04.876Z,76.60
2017-09-17T01:06:33.045Z,76.60
2017-09-17T01:09:01.943Z,76.60
2017-09-17T01:11:32.205Z,76.20
2017-09-17T01:14:00.346Z,76.20
2017-09-17T01:16:28.481Z,76.20
2017-09-17T01:18:56.649Z,76.10
2017-09-17T01:21:24.801Z,76.70
2017-09-17T01:23:52.964Z,76.30
2017-09-17T01:26:21.124Z,76.30
2017-09-17T01:28:49.405Z,77.60
2017-09-17T01:31:17.548Z,77.40
2017-09-17T01:33:46.467Z,77.20
2017-09-17T01:36:14.606Z,77.30
2017-09-17T01:38:43.529Z,76.00
2017-09-17T01:41:11.675Z,77.10
2017-09-17T01:43:40.725Z,75.60
2017-09-17T01:46:08.879Z,75.60
2017-09-17T01:48:37.024Z,75.60
2017-09-17T01:51:05.973Z,76.70
2017-09-17T01:53:34.100Z,76.80
2017-09-17T01:56:02.229Z,76.80
2017-09-17T01:58:30.403Z,77.10
2017-09-17T02:00:58.562Z,78.10
2017-09-17T02:03:26.728Z,78.40
2017-09-17T02:05:54.866Z,78.40
2017-09-17T02:08:23.161Z,78.40
2017-09-17T02:10:51.300Z,78.10
2017-09-17T02:13:20.203Z,78.50
2017-09-17T02:15:48.361Z,78.60
2017-09-17T02:18:17.264Z,78.30
2017-09-17T02:20:45.432Z,78.20
2017-09-17T02:23:14.337Z,78.30
2017-09-17T02:25:42.607Z,79.00
2017-09-17T02:28:10.735Z,78.10
2017-09-17T02:30:38.892Z,77.80
2017-09-17T02:33:07.078Z,77.90
2017-09-17T02:35:35.213Z,78.10
2017-09-17T02:38:03.350Z,77.90
2017-09-17T02:40:31.604Z,78.00
2017-09-17T02:42:59.753Z,78.40
2017-09-17T02:45:27.906Z,78.70
2017-09-17T02:47:56.042Z,79.10
2017-09-17T02:50:24.204Z,79.20
2017-09-17T02:52:52.376Z,78.90
2017-09-17T02:55:20.666Z,79.30
2017-09-17T02:57:49.586Z,79.40
2017-09-17T03:00:17.720Z,79.30
2017-09-17T03:02:45.908Z,79.40
2017-09-17T03:05:14.814Z,78.40
2017-09-17T03:07:43.001Z,79.50
2017-09-17T03:10:11.141Z,78.40
2017-09-17T03:12:40.044Z,77.90
2017-09-17T03:15:09.087Z,77.40
2017-09-17T03:17:37.218Z,77.40
2017-09-17T03:20:05.386Z,77.20
2017-09-17T03:22:34.282Z,76.70
2017-09-17T03:25:02.412Z,76.70
2017-09-17T03:27:30.569Z,77.90
2017-09-17T03:29:58.699Z,78.00
2017-09-17T03:32:27.725Z,77.40
2017-09-17T03:34:55.857Z,77.40
2017-09-17T03:37:24.785Z,77.50
2017-09-17T03:39:52.919Z,77.50
2017-09-17T03:42:23.040Z,77.10
2017-09-17T03:44:51.933Z,77.00
2017-09-17T03:47:20.835Z,76.80
2017-09-17T03:49:49.003Z,76.70
2017-09-17T03:52:17.886Z,76.60
2017-09-17T03:54:46.825Z,76.50
2017-09-17T03:57:14.952Z,76.50
2017-09-17T03:59:43.883Z,76.90
2017-09-17T04:02:12.017Z,76.90
2017-09-17T04:04:40.904Z,77.10
2017-09-17T04:07:09.928Z,77.30
2017-09-17T04:09:38.061Z,77.30
2017-09-17T04:12:06.203Z,77.60
2017-09-17T04:14:34.338Z,77.90
2017-09-17T04:17:02.503Z,78.10
2017-09-17T04:19:30.620Z,77.90
2017-09-17T04:21:58.757Z,77.80
2017-09-17T04:24:27.008Z,78.10
2017-09-17T04:26:55.941Z,78.70
2017-09-17T04:29:24.065Z,78.70
2017-09-17T04:31:52.196Z,78.40
2017-09-17T04:34:20.353Z,78.10
2017-09-17T04:36:48.486Z,78.40
2017-09-17T04:39:16.653Z,78.60
2017-09-17T04:41:44.820Z,78.50
2017-09-17T04:44:12.969Z,78.50
2017-09-17T04:46:41.145Z,78.20
2017-09-17T04:49:09.264Z,77.90
2017-09-17T04:51:38.180Z,78.10
2017-09-17T04:54:06.305Z,78.10
2017-09-17T04:56:34.460Z,78.00
2017-09-17T04:59:02.621Z,78.00
2017-09-17T05:01:30.756Z,77.60
2017-09-17T05:03:59.031Z,77.40
2017-09-17T05:06:27.922Z,77.60
2017-09-17T05:08:56.073Z,77.60
2017-09-17T05:11:24.197Z,77.60
2017-09-17T05:13:52.329Z,77.10
2017-09-17T05:16:20.516Z,76.90
2017-09-17T05:18:48.649Z,76.70
2017-09-17T05:21:16.796Z,77.00
2017-09-17T05:23:44.940Z,77.00
2017-09-17T05:26:13.094Z,76.80
2017-09-17T05:28:41.984Z,76.40
2017-09-17T05:31:11.026Z,76.50
2017-09-17T05:33:39.161Z,76.50
2017-09-17T05:36:08.050Z,76.30
2017-09-17T05:38:37.111Z,76.60
2017-09-17T05:41:05.231Z,76.60
2017-09-17T05:43:33.365Z,76.70
2017-09-17T05:46:01.523Z,77.00
2017-09-17T05:48:29.661Z,77.00
2017-09-17T05:50:57.804Z,77.30
2017-09-17T05:53:26.728Z,77.60
2017-09-17T05:55:54.857Z,77.60
2017-09-17T05:58:23.901Z,77.90
2017-09-17T06:00:52.033Z,77.90
2017-09-17T06:03:20.938Z,77.80
2017-09-17T06:05:49.115Z,77.70
2017-09-17T06:08:17.252Z,78.20
2017-09-17T06:10:45.425Z,78.70
2017-09-17T06:13:13.554Z,78.80
2017-09-17T06:15:41.683Z,79.10
2017-09-17T06:18:09.844Z,79.80
2017-09-17T06:20:37.977Z,81.30
2017-09-17T06:23:06.132Z,82.00
2017-09-17T06:25:34.280Z,82.50
2017-09-17T06:28:03.205Z,83.30
2017-09-17T06:30:31.364Z,83.30
2017-09-17T06:33:00.320Z,84.30
2017-09-17T06:35:28.496Z,84.20
2017-09-17T06:37:56.645Z,84.40
2017-09-17T06:40:24.815Z,84.60
2017-09-17T06:42:52.987Z,85.00
2017-09-17T06:45:21.181Z,84.60
2017-09-17T06:47:49.328Z,83.50
2017-09-17T06:50:17.461Z,83.50
2017-09-17T06:52:45.658Z,83.50
2017-09-17T06:55:13.800Z,82.40
2017-09-17T06:57:42.732Z,83.20
2017-09-17T07:00:10.879Z,82.50
2017-09-17T07:02:39.060Z,82.70
2017-09-17T07:05:07.207Z,82.80
2017-09-17T07:07:36.113Z,82.60
2017-09-17T07:10:05.581Z,82.60
2017-09-17T07:12:33.728Z,82.10
2017-09-17T07:15:01.901Z,82.30
2017-09-17T07:17:30.062Z,82.00
2017-09-17T07:19:58.215Z,82.10
2017-09-17T07:22:26.373Z,82.40
2017-09-17T07:24:55.277Z,82.70
2017-09-17T07:27:23.502Z,82.70
2017-09-17T07:29:51.694Z,83.20
2017-09-17T07:32:21.076Z,82.90
2017-09-17T07:34:49.216Z,83.00
2017-09-17T07:37:17.371Z,82.90
2017-09-17T07:39:46.423Z,82.60
2017-09-17T07:42:15.952Z,82.70
2017-09-17T07:44:44.870Z,83.40
2017-09-17T07:47:13.033Z,83.40
2017-09-17T07:49:41.969Z,83.40
2017-09-17T07:52:10.590Z,83.40
2017-09-17T07:54:38.732Z,83.70
2017-09-17T07:57:06.883Z,83.20
2017-09-17T07:59:35.156Z,82.40
2017-09-17T08:02:03.324Z,82.20
2017-09-17T08:04:32.575Z,83.00
2017-09-17T08:07:00.742Z,83.30
2017-09-17T08:09:28.885Z,83.50
2017-09-17T08:11:57.081Z,82.80
2017-09-17T08:14:25.233Z,82.80
2017-09-17T08:16:53.372Z,81.20
2017-09-17T08:19:21.538Z,82.50
2017-09-17T08:21:50.456Z,82.90
2017-09-17T08:24:18.729Z,82.80
2017-09-17T08:26:46.872Z,83.50
2017-09-17T08:29:15.843Z,82.40
2017-09-17T08:31:43.996Z,82.40
2017-09-17T08:34:12.145Z,81.50
2017-09-17T08:36:40.308Z,81.60
2017-09-17T08:39:08.449Z,80.50
2017-09-17T08:41:36.649Z,80.70
2017-09-17T08:44:05.035Z,80.00
2017-09-17T08:46:33.248Z,80.80
2017-09-17T08:49:01.405Z,80.00
2017-09-17T08:51:29.538Z,80.00
2017-09-17T08:53:58.488Z,81.00
2017-09-17T08:56:26.642Z,81.00
2017-09-17T08:58:54.874Z,80.30
2017-09-17T09:01:23.010Z,79.20
2017-09-17T09:03:51.146Z,79.10
2017-09-17T09:06:19.312Z,74.90
2017-09-17T09:08:48.156Z,71.50
2017-09-17T09:11:16.331Z,73.50
2017-09-17T09:13:44.464Z,72.60
2017-09-17T09:16:12.681Z,69.10
2017-09-17T09:18:41.680Z,69.70
2017-09-17T09:21:10.095Z,69.30
2017-09-17T09:23:39.025Z,67.90
2017-09-17T09:26:07.176Z,68.00
2017-09-17T09:28:35.345Z,65.40
2017-09-17T09:31:03.469Z,67.40
2017-09-17T09:33:31.755Z,67.30
2017-09-17T09:35:59.900Z,67.50
2017-09-17T09:38:28.183Z,65.40
2017-09-17T09:40:56.327Z,66.80
2017-09-17T09:43:24.469Z,65.50
2017-09-17T09:45:53.401Z,66.10
2017-09-17T09:48:21.544Z,66.10
2017-09-17T09:50:49.702Z,67.40
2017-09-17T09:53:18.597Z,68.60
2017-09-17T09:55:47.629Z,65.50
2017-09-17T09:58:15.765Z,65.50
2017-09-17T10:00:44.661Z,66.50
2017-09-17T10:03:12.824Z,66.40
2017-09-17T10:05:41.754Z,62.90
2017-09-17T10:08:09.912Z,63.00
2017-09-17T10:10:38.436Z,64.60
2017-09-17T10:13:06.571Z,63.40
2017-09-17T10:15:34.856Z,65.80
2017-09-17T10:18:02.992Z,63.40
2017-09-17T10:20:32.169Z,66.70
2017-09-17T10:23:00.320Z,66.70
2017-09-17T10:25:28.507Z,64.60
2017-09-17T10:27:57.421Z,65.90
2017-09-17T10:30:26.461Z,67.90
2017-09-17T10:32:54.642Z,67.90
2017-09-17T10:35:22.792Z,63.30
2017-09-17T10:37:50.964Z,66.30
2017-09-17T10:40:19.110Z,63.00
2017-09-17T10:42:47.297Z,62.80
2017-09-17T10:45:16.216Z,61.10
2017-09-17T10:47:45.357Z,61.20
2017-09-17T10:50:13.492Z,65.80
2017-09-17T10:52:41.630Z,64.50
2017-09-17T10:55:10.569Z,60.90
2017-09-17T10:57:38.701Z,60.90
2017-09-17T11:00:06.868Z,61.00
2017-09-17T11:02:35.827Z,61.80
2017-09-17T11:05:03.952Z,61.70
2017-09-17T11:07:32.190Z,63.40
2017-09-17T11:10:00.311Z,61.50
2017-09-17T11:12:28.496Z,59.90
2017-09-17T11:14:56.638Z,58.10
2017-09-17T11:17:24.821Z,58.60
2017-09-17T11:19:52.940Z,57.10
2017-09-17T11:22:21.097Z,55.10
2017-09-17T11:24:49.381Z,54.60
2017-09-17T11:27:17.525Z,57.80
2017-09-17T11:29:45.690Z,58.30
2017-09-17T11:32:13.832Z,56.60
2017-09-17T11:34:42.770Z,53.60
2017-09-17T11:37:10.908Z,54.20
2017-09-17T11:39:39.029Z,54.10
2017-09-17T11:42:08.773Z,56.10
2017-09-17T11:44:37.704Z,55.20
2017-09-17T11:47:05.861Z,55.30
2017-09-17T11:49:34.056Z,55.70
2017-09-17T11:52:02.228Z,56.10
2017-09-17T11:54:30.340Z,56.70
2017-09-17T11:56:58.487Z,55.50
2017-09-17T11:59:26.802Z,57.20
2017-09-17T12:01:54.938Z,57.90
2017-09-17T12:04:23.121Z,59.60
2017-09-17T12:06:51.270Z,62.10
2017-09-17T12:09:19.408Z,63.00
2017-09-17T12:11:48.339Z,64.10
2017-09-17T12:14:16.469Z,64.00
2017-09-17T12:16:45.520Z,63.20
2017-09-17T12:19:13.645Z,63.30
2017-09-17T12:21:42.592Z,63.80
2017-09-17T12:24:10.725Z,63.70
2017-09-17T12:26:38.918Z,64.10
2017-09-17T12:29:07.065Z,62.30
2017-09-17T12:31:35.209Z,62.50
2017-09-17T12:34:03.501Z,65.80
2017-09-17T12:36:32.397Z,71.20
2017-09-17T12:39:01.313Z,70.90
2017-09-17T12:41:29.489Z,70.90
2017-09-17T12:44:01.972Z,70.30
2017-09-17T12:46:30.144Z,68.50
2017-09-17T12:48:58.304Z,66.00
2017-09-17T12:51:26.597Z,64.30
2017-09-17T12:53:54.717Z,64.40
2017-09-17T12:56:22.887Z,60.20
2017-09-17T12:58:51.034Z,63.70
2017-09-17T13:01:19.210Z,65.60
2017-09-17T13:03:47.359Z,61.90
2017-09-17T13:06:16.767Z,63.30
2017-09-17T13:08:44.920Z,61.20
2017-09-17T13:11:13.085Z,59.80
2017-09-17T13:13:41.250Z,59.40
2017-09-17T13:16:10.172Z,58.10
2017-09-17T13:18:38.309Z,57.60
2017-09-17T13:21:07.220Z,56.50
2017-09-17T18:55:44.554Z,70.50
2017-09-17T18:58:18.577Z,70.50
2017-09-17T19:00:48.948Z,71.40
2017-09-17T19:03:19.077Z,71.30
2017-09-17T19:05:47.572Z,71.50
2017-09-17T19:08:16.828Z,71.20
2017-09-17T19:10:46.727Z,71.40
2017-09-17T19:13:16.417Z,71.80
2017-09-17T19:15:45.309Z,72.10
2017-09-17T19:18:13.771Z,71.90
2017-09-17T19:20:42.577Z,72.20
2017-09-17T19:23:11.038Z,72.10
2017-09-17T19:25:39.998Z,71.90
2017-09-17T19:28:09.185Z,71.50
2017-09-17T19:30:38.447Z,71.30
2017-09-17T19:33:07.982Z,71.50
2017-09-17T19:35:37.573Z,71.40
2017-09-17T19:38:05.738Z,71.70
2017-09-17T19:40:35.070Z,71.60
2017-09-17T19:43:03.525Z,71.40
2017-09-17T19:45:31.816Z,71.60
2017-09-17T19:48:01.102Z,72.20
2017-09-17T19:50:30.900Z,72.30
2017-09-17T19:52:59.143Z,72.30
2017-09-17T19:55:28.758Z,72.40
2017-09-17T19:57:57.872Z,72.40
2017-09-17T20:00:27.188Z,72.30
2017-09-17T20:02:57.378Z,72.50
2017-09-17T20:05:26.805Z,72.60
2017-09-17T20:07:56.320Z,73.20
2017-09-17T20:10:25.084Z,73.20
2017-09-17T20:12:54.769Z,73.50
2017-09-17T20:15:24.067Z,73.40
2017-09-17T20:17:52.397Z,73.70
2017-09-17T20:20:20.605Z,73.50
2017-09-17T20:22:49.497Z,73.50
2017-09-17T20:25:17.700Z,74.00
2017-09-17T20:27:47.700Z,74.20
2017-09-17T20:30:17.504Z,74.70
2017-09-17T20:32:46.322Z,74.70
2017-09-17T20:35:15.869Z,75.30
2017-09-17T20:37:45.777Z,74.80
2017-09-17T20:40:15.072Z,74.70
2017-09-17T20:42:43.299Z,74.30
2017-09-17T20:45:12.272Z,74.80
2017-09-17T20:47:40.455Z,74.90
2017-09-17T20:50:08.633Z,74.90
2017-09-17T20:52:36.963Z,74.80
2017-09-17T20:55:05.793Z,74.80
2017-09-17T20:57:33.985Z,74.50
2017-09-17T21:00:02.130Z,74.60
2017-09-17T21:02:30.875Z,74.60
2017-09-17T21:04:59.372Z,74.60
2017-09-17T21:07:27.593Z,74.30
2017-09-17T21:09:55.865Z,74.30
2017-09-17T21:12:25.289Z,74.30
2017-09-17T21:14:54.740Z,74.50
2017-09-17T21:17:24.244Z,74.60
2017-09-17T21:19:53.703Z,74.60
2017-09-17T21:22:21.890Z,74.60
2017-09-17T21:24:50.409Z,75.00
2017-09-17T21:27:19.374Z,74.90
2017-09-17T21:29:49.165Z,75.60
2017-09-17T21:32:19.122Z,74.70
2017-09-17T21:34:48.517Z,74.60
2017-09-17T21:37:17.757Z,74.90
2017-09-17T21:39:46.882Z,74.80
2017-09-17T21:42:17.336Z,74.90
2017-09-17T21:44:45.915Z,75.10
2017-09-17T21:47:14.404Z,75.70
2017-09-17T21:49:42.881Z,75.90
2017-09-17T21:52:11.080Z,76.00
2017-09-17T21:54:39.730Z,76.10
2017-09-17T21:57:07.973Z,75.90
2017-09-17T21:59:36.443Z,75.90
2017-09-17T22:02:04.925Z,76.00
2017-09-17T22:04:34.366Z,76.00
2017-09-17T22:07:03.490Z,75.80
2017-09-17T22:09:34.246Z,76.00
2017-09-17T22:12:02.409Z,76.00
2017-09-17T22:14:30.608Z,75.80
2017-09-17T22:16:58.771Z,76.00
2017-09-17T22:19:27.146Z,76.10
2017-09-17T22:21:56.381Z,76.00
2017-09-17T22:24:24.548Z,76.00
2017-09-17T22:26:52.960Z,76.30
2017-09-17T22:29:21.353Z,76.50
2017-09-17T22:31:50.323Z,76.90
2017-09-17T22:34:18.705Z,76.90
2017-09-17T22:36:47.036Z,76.60
2017-09-17T22:39:15.191Z,76.90
2017-09-17T22:41:44.143Z,76.70
2017-09-17T22:44:12.457Z,76.70
2017-09-17T22:46:41.367Z,76.60
2017-09-17T22:49:09.541Z,76.40
2017-09-17T22:51:37.688Z,76.40
2017-09-17T22:54:06.633Z,76.80
2017-09-17T22:56:34.816Z,76.80
2017-09-17T22:59:03.133Z,76.80
2017-09-17T23:01:32.303Z,77.00
2017-09-17T23:04:00.443Z,76.90
2017-09-17T23:06:28.608Z,77.00
2017-09-17T23:08:58.589Z,77.30
2017-09-17T23:11:27.377Z,77.50
2017-09-17T23:13:56.635Z,77.80
2017-09-17T23:16:24.814Z,77.70
2017-09-17T23:18:52.969Z,78.00
2017-09-17T23:21:21.128Z,78.20
2017-09-17T23:23:49.524Z,78.40
2017-09-17T23:26:17.674Z,78.80
2017-09-17T23:28:45.937Z,79.70
2017-09-17T23:31:14.096Z,80.10
2017-09-17T23:33:44.653Z,81.80
2017-09-17T23:36:12.802Z,81.10
2017-09-17T23:38:41.956Z,80.60
2017-09-17T23:41:10.108Z,80.60
2017-09-17T23:43:38.272Z,80.60
2017-09-17T23:46:06.569Z,80.90
2017-09-17T23:48:34.702Z,81.00
2017-09-17T23:51:02.976Z,80.80
2017-09-17T23:53:31.127Z,80.90
2017-09-17T23:55:59.281Z,81.70
2017-09-17T23:58:27.421Z,81.10
